Terminal Aerodrome Forecast
Issued by NWS

Home | Current Version | Previous Version | Graphics & Text | Print | Product List | Glossary On
Versions: 1 2 3 4 5 6 7 8 9 10 11 12 13 14 15 16 17 18 19 20 21 22 23 24 25 26 27 28 29 30 31
425
FTUS43 KABR 231436 AAB
TAFATY
TAF AMD
KATY 231436Z 2315/2412 10014KT 1SM -SHRA BR VCTS OVC002CB
     FM231600 10015KT 3SM BR VCTS OVC003CB
      TEMPO 2316/2318 -TSRA
     FM231900 10016KT 5SM BR OVC003
     FM232200 11017G24KT P6SM BKN008
     FM240000 11017G24KT P6SM BKN010
     FM240300 12016KT P6SM SCT010=

USA.gov is the U.S. government's official web portal to all federal, state and local government web resources and services.